Briefing drone pour Veauche

Rechercher une autre localisation

Conditions de vol :


Nous sommes le : Jeudi 18 août 2022
Il est 16:46 UTC (18:46 LT)

Lever de soleil : 04:20 UTC (06:20 LT)
Coucher de soleil : 19:12 UTC (21:12 LT)

Météo

L'essentiel des conditions de vol

VIGILANCE MÉTÉO FRANCE - Loire (42)
Vigilance Jaune : Orages
METAR de LFMH
LFMH 181630Z AUTO 35010KT 320V020 9999 FEW040/// SCT086/// BKN130/// ///CB 21/14 Q1014

Date d'émission: 18/08/2022
Heure d'émission: 16:30 UTC
Vent: 350° (variable du 320° au 020°) pour 10 KT (19 km/h)
Visibilité horizontale: > 10 km
Plafond :
- Peu de nuages à 4000ft (1219m)
- Nuages épars à 8600ft (2621m)
- Nuages morcelés à 13000ft (3962m)
Température: 21 °C
Point de rosée: 14 °C
Humidité: 64%
Pression (QNH): 1014 hPa
TAF de LFMH
LFMH 161901Z 1619/1712 CNL

Conditions prévues :

Heure d'émission : Bulletin éffectué le 16 à 19:00 UTC
Prévision : Valide du 16 a 19:00 UTC au 17 a 12:00 UTC
Nuages : à 0ft (0 m)
WEBCAM POUR VEAUCHE

Réglementation

Voler en sécurité

CARTES AERONAUTIQUE 1/500.000
CARTE AZBA (Reseau basse altitude)
CARTES VAC (LFMH)
SUP AIP




Chargement des AIP...
NOTAM (VEAUCHE + Terrain à proximité / FIR )




Chargement des NOTAMS...
CONTACT PREFECTURE 42


Avertissement : Les données mises à disposition sont indicatives. Oxygène Drone ne pourra être tenu responsable de dégâts causés aux biens et aux personnes.